sensor_id;sensor_type;location;lat;lon;timestamp;P1;durP1;ratioP1;P2;durP2;ratioP2
2888;SDS011;1453;42.708;23.282;2023-02-28T00:01:25;1.20;;;0.70;;
2888;SDS011;1453;42.708;23.282;2023-02-28T00:03:52;1.20;;;0.80;;
2888;SDS011;1453;42.708;23.282;2023-02-28T00:06:17;1.20;;;0.70;;
2888;SDS011;1453;42.708;23.282;2023-02-28T00:08:43;1.20;;;0.70;;
2888;SDS011;1453;42.708;23.282;2023-02-28T00:11:11;1.20;;;0.70;;
2888;SDS011;1453;42.708;23.282;2023-02-28T00:13:40;1.20;;;0.70;;
2888;SDS011;1453;42.708;23.282;2023-02-28T00:16:12;3.55;;;3.35;;
2888;SDS011;1453;42.708;23.282;2023-02-28T00:18:47;2.17;;;1.75;;
2888;SDS011;1453;42.708;23.282;2023-02-28T00:21:14;1.20;;;0.70;;
2888;SDS011;1453;42.708;23.282;2023-02-28T00:23:42;1.20;;;0.70;;
2888;SDS011;1453;42.708;23.282;2023-02-28T00:26:08;1.20;;;0.80;;
2888;SDS011;1453;42.708;23.282;2023-02-28T00:28:34;1.20;;;0.70;;
2888;SDS011;1453;42.708;23.282;2023-02-28T00:31:00;2.13;;;1.83;;
2888;SDS011;1453;42.708;23.282;2023-02-28T00:33:27;7.27;;;6.77;;
2888;SDS011;1453;42.708;23.282;2023-02-28T00:36:00;1.20;;;0.70;;
2888;SDS011;1453;42.708;23.282;2023-02-28T00:38:31;16.20;;;14.55;;
2888;SDS011;1453;42.708;23.282;2023-02-28T00:40:57;1.13;;;0.70;;
2888;SDS011;1453;42.708;23.282;2023-02-28T00:43:23;1.20;;;0.70;;
2888;SDS011;1453;42.708;23.282;2023-02-28T00:45:49;1.20;;;0.70;;
2888;SDS011;1453;42.708;23.282;2023-02-28T00:48:15;7.30;;;6.93;;
2888;SDS011;1453;42.708;23.282;2023-02-28T00:50:41;1.20;;;0.77;;
2888;SDS011;1453;42.708;23.282;2023-02-28T00:53:06;1.77;;;1.67;;
2888;SDS011;1453;42.708;23.282;2023-02-28T00:55:32;1.13;;;0.70;;
2888;SDS011;1453;42.708;23.282;2023-02-28T00:57:58;1.20;;;0.70;;
2888;SDS011;1453;42.708;23.282;2023-02-28T01:00:24;1.20;;;0.70;;
2888;SDS011;1453;42.708;23.282;2023-02-28T01:02:49;1.20;;;0.70;;
2888;SDS011;1453;42.708;23.282;2023-02-28T01:05:15;1.60;;;1.50;;
2888;SDS011;1453;42.708;23.282;2023-02-28T01:07:41;1.20;;;0.70;;
2888;SDS011;1453;42.708;23.282;2023-02-28T01:10:07;1.20;;;0.80;;
2888;SDS011;1453;42.708;23.282;2023-02-28T01:12:34;1.20;;;0.70;;
2888;SDS011;1453;42.708;23.282;2023-02-28T01:14:59;1.20;;;0.70;;
2888;SDS011;1453;42.708;23.282;2023-02-28T01:17:25;1.20;;;1.00;;
2888;SDS011;1453;42.708;23.282;2023-02-28T01:19:52;3.93;;;3.70;;
2888;SDS011;1453;42.708;23.282;2023-02-28T01:22:20;1.20;;;0.70;;
2888;SDS011;1453;42.708;23.282;2023-02-28T01:24:46;1.58;;;1.48;;
2888;SDS011;1453;42.708;23.282;2023-02-28T01:27:12;1.17;;;0.70;;
2888;SDS011;1453;42.708;23.282;2023-02-28T01:29:38;1.13;;;0.70;;
2888;SDS011;1453;42.708;23.282;2023-02-28T01:32:04;1.20;;;0.70;;
2888;SDS011;1453;42.708;23.282;2023-02-28T01:34:30;1.20;;;0.90;;
2888;SDS011;1453;42.708;23.282;2023-02-28T01:36:56;1.17;;;0.70;;
2888;SDS011;1453;42.708;23.282;2023-02-28T01:39:23;1.20;;;0.70;;
2888;SDS011;1453;42.708;23.282;2023-02-28T01:41:50;1.20;;;0.80;;
2888;SDS011;1453;42.708;23.282;2023-02-28T01:47:20;1.20;;;0.70;;
2888;SDS011;1453;42.708;23.282;2023-02-28T01:49:46;1.17;;;0.70;;
2888;SDS011;1453;42.708;23.282;2023-02-28T01:52:13;1.20;;;1.00;;
2888;SDS011;1453;42.708;23.282;2023-02-28T01:54:43;1.20;;;0.70;;
2888;SDS011;1453;42.708;23.282;2023-02-28T01:57:15;1.10;;;0.70;;
2888;SDS011;1453;42.708;23.282;2023-02-28T01:59:50;1.20;;;0.82;;
2888;SDS011;1453;42.708;23.282;2023-02-28T02:02:23;1.20;;;0.70;;
2888;SDS011;1453;42.708;23.282;2023-02-28T02:04:57;1.20;;;0.90;;
2888;SDS011;1453;42.708;23.282;2023-02-28T02:07:33;1.10;;;0.70;;
2888;SDS011;1453;42.708;23.282;2023-02-28T02:18:40;1.13;;;0.70;;
2888;SDS011;1453;42.708;23.282;2023-02-28T02:37:54;1.10;;;0.70;;
2888;SDS011;1453;42.708;23.282;2023-02-28T02:43:29;1.10;;;0.70;;
2888;SDS011;1453;42.708;23.282;2023-02-28T02:46:04;1.10;;;0.70;;
2888;SDS011;1453;42.708;23.282;2023-02-28T02:48:37;1.15;;;0.70;;
2888;SDS011;1453;42.708;23.282;2023-02-28T02:51:15;1.13;;;0.70;;
2888;SDS011;1453;42.708;23.282;2023-02-28T02:53:56;1.15;;;0.70;;
2888;SDS011;1453;42.708;23.282;2023-02-28T02:56:33;1.10;;;0.70;;
2888;SDS011;1453;42.708;23.282;2023-02-28T02:59:04;1.20;;;0.70;;
2888;SDS011;1453;42.708;23.282;2023-02-28T03:01:35;1.17;;;0.70;;
2888;SDS011;1453;42.708;23.282;2023-02-28T03:04:04;1.30;;;1.13;;
2888;SDS011;1453;42.708;23.282;2023-02-28T03:06:37;1.10;;;0.70;;
2888;SDS011;1453;42.708;23.282;2023-02-28T03:09:03;1.20;;;0.70;;
2888;SDS011;1453;42.708;23.282;2023-02-28T03:11:29;1.10;;;0.70;;
2888;SDS011;1453;42.708;23.282;2023-02-28T03:31:32;1.10;;;0.70;;
2888;SDS011;1453;42.708;23.282;2023-02-28T03:36:38;1.10;;;0.70;;
2888;SDS011;1453;42.708;23.282;2023-02-28T03:39:14;1.10;;;0.70;;
2888;SDS011;1453;42.708;23.282;2023-02-28T03:42:09;9.32;;;5.22;;
2888;SDS011;1453;42.708;23.282;2023-02-28T03:44:51;1.10;;;0.70;;
2888;SDS011;1453;42.708;23.282;2023-02-28T03:47:35;1.13;;;0.70;;
2888;SDS011;1453;42.708;23.282;2023-02-28T03:52:50;1.10;;;0.70;;
2888;SDS011;1453;42.708;23.282;2023-02-28T03:55:26;1.10;;;0.70;;
2888;SDS011;1453;42.708;23.282;2023-02-28T04:00:53;1.10;;;0.70;;
2888;SDS011;1453;42.708;23.282;2023-02-28T04:03:33;1.10;;;0.70;;
2888;SDS011;1453;42.708;23.282;2023-02-28T04:06:07;1.17;;;0.70;;
2888;SDS011;1453;42.708;23.282;2023-02-28T04:08:40;1.13;;;0.85;;
2888;SDS011;1453;42.708;23.282;2023-02-28T04:11:08;1.10;;;0.70;;
2888;SDS011;1453;42.708;23.282;2023-02-28T04:13:46;3.13;;;2.85;;
2888;SDS011;1453;42.708;23.282;2023-02-28T04:16:13;1.10;;;0.70;;
2888;SDS011;1453;42.708;23.282;2023-02-28T04:18:39;1.10;;;0.70;;
2888;SDS011;1453;42.708;23.282;2023-02-28T04:21:05;1.10;;;0.70;;
2888;SDS011;1453;42.708;23.282;2023-02-28T04:23:32;1.10;;;0.70;;
2888;SDS011;1453;42.708;23.282;2023-02-28T04:25:58;1.48;;;1.05;;
2888;SDS011;1453;42.708;23.282;2023-02-28T04:28:24;1.10;;;0.70;;
2888;SDS011;1453;42.708;23.282;2023-02-28T04:31:08;1.10;;;0.80;;
2888;SDS011;1453;42.708;23.282;2023-02-28T04:33:35;1.10;;;0.70;;
2888;SDS011;1453;42.708;23.282;2023-02-28T04:36:05;1.10;;;0.70;;
2888;SDS011;1453;42.708;23.282;2023-02-28T04:38:36;1.10;;;0.70;;
2888;SDS011;1453;42.708;23.282;2023-02-28T04:41:04;2.40;;;2.30;;
2888;SDS011;1453;42.708;23.282;2023-02-28T04:43:30;1.10;;;0.70;;
2888;SDS011;1453;42.708;23.282;2023-02-28T04:45:57;1.10;;;0.70;;
2888;SDS011;1453;42.708;23.282;2023-02-28T04:48:30;1.10;;;0.70;;
2888;SDS011;1453;42.708;23.282;2023-02-28T04:51:02;1.10;;;0.70;;
2888;SDS011;1453;42.708;23.282;2023-02-28T04:53:34;1.20;;;0.80;;
2888;SDS011;1453;42.708;23.282;2023-02-28T04:56:01;1.65;;;1.55;;
2888;SDS011;1453;42.708;23.282;2023-02-28T04:58:28;1.33;;;1.13;;
2888;SDS011;1453;42.708;23.282;2023-02-28T05:00:57;1.17;;;0.90;;
2888;SDS011;1453;42.708;23.282;2023-02-28T05:03:38;3.40;;;3.10;;
2888;SDS011;1453;42.708;23.282;2023-02-28T05:06:08;1.10;;;0.70;;
2888;SDS011;1453;42.708;23.282;2023-02-28T05:08:34;1.10;;;0.70;;
2888;SDS011;1453;42.708;23.282;2023-02-28T05:11:01;1.20;;;0.97;;
2888;SDS011;1453;42.708;23.282;2023-02-28T05:13:27;1.10;;;0.70;;
2888;SDS011;1453;42.708;23.282;2023-02-28T05:15:53;1.75;;;1.65;;
2888;SDS011;1453;42.708;23.282;2023-02-28T05:18:20;1.15;;;0.70;;
2888;SDS011;1453;42.708;23.282;2023-02-28T05:20:46;1.43;;;1.33;;
2888;SDS011;1453;42.708;23.282;2023-02-28T05:23:12;1.10;;;0.70;;
2888;SDS011;1453;42.708;23.282;2023-02-28T05:25:39;1.17;;;0.85;;
2888;SDS011;1453;42.708;23.282;2023-02-28T05:28:06;1.10;;;0.70;;
2888;SDS011;1453;42.708;23.282;2023-02-28T05:30:32;1.10;;;0.70;;
2888;SDS011;1453;42.708;23.282;2023-02-28T05:32:58;1.10;;;0.70;;
2888;SDS011;1453;42.708;23.282;2023-02-28T05:35:25;1.13;;;0.70;;
2888;SDS011;1453;42.708;23.282;2023-02-28T05:37:51;1.10;;;0.70;;
2888;SDS011;1453;42.708;23.282;2023-02-28T05:40:17;1.10;;;0.75;;
2888;SDS011;1453;42.708;23.282;2023-02-28T05:42:45;1.10;;;0.70;;
2888;SDS011;1453;42.708;23.282;2023-02-28T05:45:11;1.30;;;1.15;;
2888;SDS011;1453;42.708;23.282;2023-02-28T05:47:37;2.43;;;2.23;;
2888;SDS011;1453;42.708;23.282;2023-02-28T05:50:04;1.10;;;0.80;;
2888;SDS011;1453;42.708;23.282;2023-02-28T05:52:31;1.60;;;1.50;;
2888;SDS011;1453;42.708;23.282;2023-02-28T05:54:57;1.10;;;0.70;;
2888;SDS011;1453;42.708;23.282;2023-02-28T05:57:24;1.52;;;1.42;;
2888;SDS011;1453;42.708;23.282;2023-02-28T05:59:50;1.10;;;0.80;;
2888;SDS011;1453;42.708;23.282;2023-02-28T06:02:16;1.10;;;0.70;;
2888;SDS011;1453;42.708;23.282;2023-02-28T06:04:43;1.10;;;0.70;;
2888;SDS011;1453;42.708;23.282;2023-02-28T06:07:10;1.10;;;0.70;;
2888;SDS011;1453;42.708;23.282;2023-02-28T06:09:36;1.20;;;0.70;;
2888;SDS011;1453;42.708;23.282;2023-02-28T06:12:04;1.20;;;0.90;;
2888;SDS011;1453;42.708;23.282;2023-02-28T06:14:32;1.20;;;0.90;;
2888;SDS011;1453;42.708;23.282;2023-02-28T06:16:59;1.20;;;1.05;;
2888;SDS011;1453;42.708;23.282;2023-02-28T06:19:26;1.20;;;0.80;;
2888;SDS011;1453;42.708;23.282;2023-02-28T06:21:52;1.13;;;0.70;;
2888;SDS011;1453;42.708;23.282;2023-02-28T06:24:20;1.15;;;0.70;;
2888;SDS011;1453;42.708;23.282;2023-02-28T06:26:47;1.10;;;0.70;;
2888;SDS011;1453;42.708;23.282;2023-02-28T06:29:13;2.70;;;2.50;;
2888;SDS011;1453;42.708;23.282;2023-02-28T06:31:46;2.42;;;2.28;;
2888;SDS011;1453;42.708;23.282;2023-02-28T06:34:13;1.10;;;0.70;;
2888;SDS011;1453;42.708;23.282;2023-02-28T06:36:39;1.10;;;0.75;;
2888;SDS011;1453;42.708;23.282;2023-02-28T06:39:07;2.85;;;2.65;;
2888;SDS011;1453;42.708;23.282;2023-02-28T06:41:34;2.67;;;2.47;;
2888;SDS011;1453;42.708;23.282;2023-02-28T06:44:05;1.20;;;0.70;;
2888;SDS011;1453;42.708;23.282;2023-02-28T06:46:42;27.90;;;17.92;;
2888;SDS011;1453;42.708;23.282;2023-02-28T06:49:10;1.20;;;0.80;;
2888;SDS011;1453;42.708;23.282;2023-02-28T06:51:37;8.80;;;8.18;;
2888;SDS011;1453;42.708;23.282;2023-02-28T06:54:09;1.20;;;0.70;;
2888;SDS011;1453;42.708;23.282;2023-02-28T06:56:36;1.15;;;0.70;;
2888;SDS011;1453;42.708;23.282;2023-02-28T06:59:02;2.17;;;2.08;;
2888;SDS011;1453;42.708;23.282;2023-02-28T07:01:29;1.17;;;0.70;;
2888;SDS011;1453;42.708;23.282;2023-02-28T07:03:57;10.35;;;7.93;;
2888;SDS011;1453;42.708;23.282;2023-02-28T07:06:23;1.20;;;0.80;;
2888;SDS011;1453;42.708;23.282;2023-02-28T07:08:50;1.20;;;0.80;;
2888;SDS011;1453;42.708;23.282;2023-02-28T07:11:20;1.20;;;0.75;;
2888;SDS011;1453;42.708;23.282;2023-02-28T07:13:51;6.07;;;5.50;;
2888;SDS011;1453;42.708;23.282;2023-02-28T07:16:20;1.20;;;0.70;;
2888;SDS011;1453;42.708;23.282;2023-02-28T07:18:47;1.58;;;1.48;;
2888;SDS011;1453;42.708;23.282;2023-02-28T07:21:14;1.20;;;0.70;;
2888;SDS011;1453;42.708;23.282;2023-02-28T07:23:40;1.20;;;0.77;;
2888;SDS011;1453;42.708;23.282;2023-02-28T07:26:07;1.88;;;1.27;;
2888;SDS011;1453;42.708;23.282;2023-02-28T07:28:39;55.67;;;28.58;;
2888;SDS011;1453;42.708;23.282;2023-02-28T07:31:07;53.78;;;29.13;;
2888;SDS011;1453;42.708;23.282;2023-02-28T07:33:34;58.70;;;28.40;;
2888;SDS011;1453;42.708;23.282;2023-02-28T07:36:01;53.72;;;28.55;;
2888;SDS011;1453;42.708;23.282;2023-02-28T07:38:30;52.67;;;29.40;;
2888;SDS011;1453;42.708;23.282;2023-02-28T07:40:59;65.03;;;29.83;;
2888;SDS011;1453;42.708;23.282;2023-02-28T07:43:25;55.03;;;29.47;;
2888;SDS011;1453;42.708;23.282;2023-02-28T07:45:50;57.30;;;27.90;;
2888;SDS011;1453;42.708;23.282;2023-02-28T07:48:16;60.80;;;28.53;;
2888;SDS011;1453;42.708;23.282;2023-02-28T07:50:42;60.10;;;28.80;;
2888;SDS011;1453;42.708;23.282;2023-02-28T07:53:08;59.70;;;30.80;;
2888;SDS011;1453;42.708;23.282;2023-02-28T07:55:33;59.60;;;28.90;;
2888;SDS011;1453;42.708;23.282;2023-02-28T07:58:00;53.30;;;29.75;;
2888;SDS011;1453;42.708;23.282;2023-02-28T08:00:25;64.53;;;33.37;;
2888;SDS011;1453;42.708;23.282;2023-02-28T08:02:51;61.83;;;32.70;;
2888;SDS011;1453;42.708;23.282;2023-02-28T08:05:17;63.17;;;32.13;;
2888;SDS011;1453;42.708;23.282;2023-02-28T08:07:43;61.40;;;33.77;;
2888;SDS011;1453;42.708;23.282;2023-02-28T08:10:09;63.43;;;31.17;;
2888;SDS011;1453;42.708;23.282;2023-02-28T08:12:35;57.43;;;32.63;;
2888;SDS011;1453;42.708;23.282;2023-02-28T08:15:01;60.07;;;33.80;;
2888;SDS011;1453;42.708;23.282;2023-02-28T08:17:27;60.87;;;33.03;;
2888;SDS011;1453;42.708;23.282;2023-02-28T08:19:53;57.50;;;32.90;;
2888;SDS011;1453;42.708;23.282;2023-02-28T08:22:18;59.53;;;31.93;;
2888;SDS011;1453;42.708;23.282;2023-02-28T08:24:44;61.53;;;33.70;;
2888;SDS011;1453;42.708;23.282;2023-02-28T08:27:10;61.90;;;32.60;;
2888;SDS011;1453;42.708;23.282;2023-02-28T08:29:37;67.73;;;32.03;;
2888;SDS011;1453;42.708;23.282;2023-02-28T08:32:03;66.30;;;33.30;;
2888;SDS011;1453;42.708;23.282;2023-02-28T08:34:31;63.83;;;34.40;;
2888;SDS011;1453;42.708;23.282;2023-02-28T08:36:57;68.67;;;36.47;;
2888;SDS011;1453;42.708;23.282;2023-02-28T08:39:22;54.10;;;31.95;;
2888;SDS011;1453;42.708;23.282;2023-02-28T08:41:48;64.40;;;34.97;;
2888;SDS011;1453;42.708;23.282;2023-02-28T08:44:14;64.20;;;34.20;;
2888;SDS011;1453;42.708;23.282;2023-02-28T08:46:40;68.17;;;35.70;;
2888;SDS011;1453;42.708;23.282;2023-02-28T08:49:05;72.30;;;37.40;;
2888;SDS011;1453;42.708;23.282;2023-02-28T08:51:32;65.67;;;35.70;;
2888;SDS011;1453;42.708;23.282;2023-02-28T08:53:59;74.47;;;35.10;;
2888;SDS011;1453;42.708;23.282;2023-02-28T08:56:25;64.07;;;34.20;;
2888;SDS011;1453;42.708;23.282;2023-02-28T08:58:54;55.70;;;31.98;;
2888;SDS011;1453;42.708;23.282;2023-02-28T09:01:23;64.70;;;32.70;;
2888;SDS011;1453;42.708;23.282;2023-02-28T09:03:53;66.30;;;31.40;;
2888;SDS011;1453;42.708;23.282;2023-02-28T09:06:21;63.77;;;31.70;;
2888;SDS011;1453;42.708;23.282;2023-02-28T09:08:49;61.30;;;32.27;;
2888;SDS011;1453;42.708;23.282;2023-02-28T09:11:16;73.22;;;33.38;;
2888;SDS011;1453;42.708;23.282;2023-02-28T09:13:43;62.20;;;32.35;;
2888;SDS011;1453;42.708;23.282;2023-02-28T09:16:10;64.93;;;32.15;;
2888;SDS011;1453;42.708;23.282;2023-02-28T09:18:39;71.28;;;33.55;;
2888;SDS011;1453;42.708;23.282;2023-02-28T09:21:06;61.78;;;30.58;;
2888;SDS011;1453;42.708;23.282;2023-02-28T09:23:34;61.35;;;31.70;;
2888;SDS011;1453;42.708;23.282;2023-02-28T09:26:03;67.03;;;32.08;;
2888;SDS011;1453;42.708;23.282;2023-02-28T09:28:29;60.92;;;31.98;;
2888;SDS011;1453;42.708;23.282;2023-02-28T09:30:55;60.57;;;29.93;;
2888;SDS011;1453;42.708;23.282;2023-02-28T09:33:23;55.47;;;31.07;;
2888;SDS011;1453;42.708;23.282;2023-02-28T09:35:51;65.38;;;33.33;;
2888;SDS011;1453;42.708;23.282;2023-02-28T09:38:25;59.47;;;31.30;;
2888;SDS011;1453;42.708;23.282;2023-02-28T09:40:53;58.27;;;32.13;;
2888;SDS011;1453;42.708;23.282;2023-02-28T09:43:26;65.67;;;34.23;;
2888;SDS011;1453;42.708;23.282;2023-02-28T09:48:51;61.47;;;33.23;;
2888;SDS011;1453;42.708;23.282;2023-02-28T09:54:14;60.30;;;32.33;;
2888;SDS011;1453;42.708;23.282;2023-02-28T09:56:51;63.67;;;32.33;;
2888;SDS011;1453;42.708;23.282;2023-02-28T10:05:11;57.17;;;32.00;;
2888;SDS011;1453;42.708;23.282;2023-02-28T10:07:55;56.90;;;31.90;;
2888;SDS011;1453;42.708;23.282;2023-02-28T10:10:46;54.97;;;31.70;;
2888;SDS011;1453;42.708;23.282;2023-02-28T10:13:26;59.67;;;31.20;;
2888;SDS011;1453;42.708;23.282;2023-02-28T10:16:45;53.67;;;29.03;;
2888;SDS011;1453;42.708;23.282;2023-02-28T10:24:49;42.53;;;26.90;;
2888;SDS011;1453;42.708;23.282;2023-02-28T10:27:21;34.43;;;18.53;;
2888;SDS011;1453;42.708;23.282;2023-02-28T10:29:56;34.67;;;18.70;;
2888;SDS011;1453;42.708;23.282;2023-02-28T10:32:35;30.10;;;15.57;;
2888;SDS011;1453;42.708;23.282;2023-02-28T10:37:39;28.43;;;13.30;;
2888;SDS011;1453;42.708;23.282;2023-02-28T10:40:29;28.90;;;12.53;;
2888;SDS011;1453;42.708;23.282;2023-02-28T10:43:01;25.90;;;11.40;;
2888;SDS011;1453;42.708;23.282;2023-02-28T10:45:37;25.70;;;12.30;;
2888;SDS011;1453;42.708;23.282;2023-02-28T11:01:41;22.93;;;11.33;;
2888;SDS011;1453;42.708;23.282;2023-02-28T11:09:33;23.80;;;9.83;;
2888;SDS011;1453;42.708;23.282;2023-02-28T11:12:04;18.17;;;10.20;;
2888;SDS011;1453;42.708;23.282;2023-02-28T11:14:36;17.40;;;11.43;;
2888;SDS011;1453;42.708;23.282;2023-02-28T11:17:20;21.00;;;12.00;;
2888;SDS011;1453;42.708;23.282;2023-02-28T11:19:50;25.97;;;13.30;;
2888;SDS011;1453;42.708;23.282;2023-02-28T11:22:22;22.87;;;11.40;;
2888;SDS011;1453;42.708;23.282;2023-02-28T11:24:55;27.07;;;13.60;;
2888;SDS011;1453;42.708;23.282;2023-02-28T11:29:59;17.00;;;11.70;;
2888;SDS011;1453;42.708;23.282;2023-02-28T11:32:29;21.40;;;11.40;;
2888;SDS011;1453;42.708;23.282;2023-02-28T11:37:37;23.43;;;11.20;;
2888;SDS011;1453;42.708;23.282;2023-02-28T11:40:16;24.17;;;11.20;;
2888;SDS011;1453;42.708;23.282;2023-02-28T12:05:46;29.40;;;12.17;;
2888;SDS011;1453;42.708;23.282;2023-02-28T12:11:01;19.97;;;11.50;;
2888;SDS011;1453;42.708;23.282;2023-02-28T12:28:48;20.23;;;10.27;;
2888;SDS011;1453;42.708;23.282;2023-02-28T12:31:24;23.23;;;10.33;;
2888;SDS011;1453;42.708;23.282;2023-02-28T12:33:56;25.27;;;10.60;;
2888;SDS011;1453;42.708;23.282;2023-02-28T12:36:28;20.67;;;11.60;;
2888;SDS011;1453;42.708;23.282;2023-02-28T12:39:03;16.23;;;9.23;;
2888;SDS011;1453;42.708;23.282;2023-02-28T12:41:42;20.67;;;11.70;;
2888;SDS011;1453;42.708;23.282;2023-02-28T12:46:58;21.03;;;10.00;;
2888;SDS011;1453;42.708;23.282;2023-02-28T12:49:31;21.37;;;10.37;;
2888;SDS011;1453;42.708;23.282;2023-02-28T12:52:10;22.47;;;9.77;;
2888;SDS011;1453;42.708;23.282;2023-02-28T13:00:10;27.43;;;11.17;;
2888;SDS011;1453;42.708;23.282;2023-02-28T13:05:28;26.37;;;9.87;;
2888;SDS011;1453;42.708;23.282;2023-02-28T13:11:05;20.00;;;11.20;;
2888;SDS011;1453;42.708;23.282;2023-02-28T13:13:31;17.83;;;10.13;;
2888;SDS011;1453;42.708;23.282;2023-02-28T13:18:38;30.13;;;12.47;;
2888;SDS011;1453;42.708;23.282;2023-02-28T13:21:09;25.57;;;11.07;;
2888;SDS011;1453;42.708;23.282;2023-02-28T13:27:11;22.27;;;10.30;;
2888;SDS011;1453;42.708;23.282;2023-02-28T13:34:30;22.90;;;11.63;;
2888;SDS011;1453;42.708;23.282;2023-02-28T13:47:28;26.13;;;10.87;;
2888;SDS011;1453;42.708;23.282;2023-02-28T13:52:52;23.30;;;9.97;;
2888;SDS011;1453;42.708;23.282;2023-02-28T14:01:41;20.30;;;10.87;;
2888;SDS011;1453;42.708;23.282;2023-02-28T14:07:21;19.03;;;10.40;;
2888;SDS011;1453;42.708;23.282;2023-02-28T14:09:57;19.87;;;10.30;;
2888;SDS011;1453;42.708;23.282;2023-02-28T14:18:39;20.60;;;9.97;;
2888;SDS011;1453;42.708;23.282;2023-02-28T14:21:01;20.37;;;8.83;;
2888;SDS011;1453;42.708;23.282;2023-02-28T14:26:57;22.17;;;10.53;;
2888;SDS011;1453;42.708;23.282;2023-02-28T14:37:41;17.20;;;8.50;;
2888;SDS011;1453;42.708;23.282;2023-02-28T14:40:12;20.97;;;11.00;;
2888;SDS011;1453;42.708;23.282;2023-02-28T14:42:47;30.37;;;11.77;;
2888;SDS011;1453;42.708;23.282;2023-02-28T14:45:21;17.83;;;9.40;;
2888;SDS011;1453;42.708;23.282;2023-02-28T14:47:51;18.70;;;11.40;;
2888;SDS011;1453;42.708;23.282;2023-02-28T14:50:22;21.00;;;10.17;;
2888;SDS011;1453;42.708;23.282;2023-02-28T14:52:54;24.93;;;10.43;;
2888;SDS011;1453;42.708;23.282;2023-02-28T14:55:23;19.37;;;8.33;;
2888;SDS011;1453;42.708;23.282;2023-02-28T14:57:56;29.90;;;10.50;;
2888;SDS011;1453;42.708;23.282;2023-02-28T15:00:31;20.17;;;9.87;;
2888;SDS011;1453;42.708;23.282;2023-02-28T15:03:00;19.87;;;10.37;;
2888;SDS011;1453;42.708;23.282;2023-02-28T15:05:47;21.40;;;10.70;;
2888;SDS011;1453;42.708;23.282;2023-02-28T15:08:28;19.20;;;11.00;;
2888;SDS011;1453;42.708;23.282;2023-02-28T15:11:00;20.23;;;10.77;;
2888;SDS011;1453;42.708;23.282;2023-02-28T15:16:12;21.73;;;10.87;;
2888;SDS011;1453;42.708;23.282;2023-02-28T15:21:17;16.30;;;8.97;;
2888;SDS011;1453;42.708;23.282;2023-02-28T15:23:49;19.60;;;9.87;;
2888;SDS011;1453;42.708;23.282;2023-02-28T15:26:38;20.67;;;10.20;;
2888;SDS011;1453;42.708;23.282;2023-02-28T15:29:07;21.40;;;10.70;;
2888;SDS011;1453;42.708;23.282;2023-02-28T15:31:43;22.73;;;11.80;;
2888;SDS011;1453;42.708;23.282;2023-02-28T15:34:18;19.23;;;10.30;;
2888;SDS011;1453;42.708;23.282;2023-02-28T15:36:47;25.77;;;11.70;;
2888;SDS011;1453;42.708;23.282;2023-02-28T15:39:31;20.20;;;11.07;;
2888;SDS011;1453;42.708;23.282;2023-02-28T15:42:11;20.70;;;11.03;;
2888;SDS011;1453;42.708;23.282;2023-02-28T15:44:42;18.23;;;9.87;;
2888;SDS011;1453;42.708;23.282;2023-02-28T15:47:18;17.20;;;11.60;;
2888;SDS011;1453;42.708;23.282;2023-02-28T15:55:08;20.50;;;11.90;;
2888;SDS011;1453;42.708;23.282;2023-02-28T15:57:47;19.63;;;9.70;;
2888;SDS011;1453;42.708;23.282;2023-02-28T16:00:19;22.53;;;11.80;;
2888;SDS011;1453;42.708;23.282;2023-02-28T16:02:47;19.63;;;11.90;;
2888;SDS011;1453;42.708;23.282;2023-02-28T16:05:27;21.40;;;11.90;;
2888;SDS011;1453;42.708;23.282;2023-02-28T16:08:13;16.83;;;10.10;;
2888;SDS011;1453;42.708;23.282;2023-02-28T16:10:40;18.93;;;11.07;;
2888;SDS011;1453;42.708;23.282;2023-02-28T16:13:06;12.40;;;9.13;;
2888;SDS011;1453;42.708;23.282;2023-02-28T16:15:38;17.10;;;10.63;;
2888;SDS011;1453;42.708;23.282;2023-02-28T16:18:08;14.80;;;10.60;;
2888;SDS011;1453;42.708;23.282;2023-02-28T16:20:37;13.03;;;9.40;;
2888;SDS011;1453;42.708;23.282;2023-02-28T16:23:03;14.63;;;9.60;;
2888;SDS011;1453;42.708;23.282;2023-02-28T16:25:33;15.43;;;9.70;;
2888;SDS011;1453;42.708;23.282;2023-02-28T16:28:02;16.40;;;9.50;;
2888;SDS011;1453;42.708;23.282;2023-02-28T16:30:29;13.73;;;9.47;;
2888;SDS011;1453;42.708;23.282;2023-02-28T16:32:58;13.30;;;8.63;;
2888;SDS011;1453;42.708;23.282;2023-02-28T16:35:24;17.20;;;9.88;;
2888;SDS011;1453;42.708;23.282;2023-02-28T16:37:50;14.17;;;8.70;;
2888;SDS011;1453;42.708;23.282;2023-02-28T16:40:24;14.67;;;9.17;;
2888;SDS011;1453;42.708;23.282;2023-02-28T16:42:51;13.13;;;8.27;;
2888;SDS011;1453;42.708;23.282;2023-02-28T16:45:27;15.10;;;9.50;;
2888;SDS011;1453;42.708;23.282;2023-02-28T16:47:54;14.30;;;9.53;;
2888;SDS011;1453;42.708;23.282;2023-02-28T16:50:22;17.93;;;9.27;;
2888;SDS011;1453;42.708;23.282;2023-02-28T16:52:57;15.27;;;9.30;;
2888;SDS011;1453;42.708;23.282;2023-02-28T16:55:24;15.70;;;8.57;;
2888;SDS011;1453;42.708;23.282;2023-02-28T16:57:53;13.40;;;8.10;;
2888;SDS011;1453;42.708;23.282;2023-02-28T17:00:22;15.87;;;8.60;;
2888;SDS011;1453;42.708;23.282;2023-02-28T17:02:50;15.23;;;7.93;;
2888;SDS011;1453;42.708;23.282;2023-02-28T17:05:15;14.55;;;8.40;;
2888;SDS011;1453;42.708;23.282;2023-02-28T17:07:43;13.90;;;7.97;;
2888;SDS011;1453;42.708;23.282;2023-02-28T17:10:14;11.35;;;8.18;;
2888;SDS011;1453;42.708;23.282;2023-02-28T17:12:48;8.77;;;5.63;;
2888;SDS011;1453;42.708;23.282;2023-02-28T17:15:14;11.43;;;7.85;;
2888;SDS011;1453;42.708;23.282;2023-02-28T17:17:43;12.13;;;7.50;;
2888;SDS011;1453;42.708;23.282;2023-02-28T17:20:12;13.57;;;7.55;;
2888;SDS011;1453;42.708;23.282;2023-02-28T17:22:40;11.32;;;6.57;;
2888;SDS011;1453;42.708;23.282;2023-02-28T17:25:06;11.50;;;6.20;;
2888;SDS011;1453;42.708;23.282;2023-02-28T17:27:34;10.32;;;7.00;;
2888;SDS011;1453;42.708;23.282;2023-02-28T17:30:00;12.02;;;6.80;;
2888;SDS011;1453;42.708;23.282;2023-02-28T17:32:28;8.80;;;5.30;;
2888;SDS011;1453;42.708;23.282;2023-02-28T17:34:53;10.43;;;5.77;;
2888;SDS011;1453;42.708;23.282;2023-02-28T17:37:19;9.10;;;5.53;;
2888;SDS011;1453;42.708;23.282;2023-02-28T17:39:45;8.87;;;6.60;;
2888;SDS011;1453;42.708;23.282;2023-02-28T17:42:11;8.80;;;5.73;;
2888;SDS011;1453;42.708;23.282;2023-02-28T17:44:37;15.18;;;6.53;;
2888;SDS011;1453;42.708;23.282;2023-02-28T17:47:03;13.87;;;8.03;;
2888;SDS011;1453;42.708;23.282;2023-02-28T17:49:29;10.77;;;6.33;;
2888;SDS011;1453;42.708;23.282;2023-02-28T17:51:54;8.47;;;5.00;;
2888;SDS011;1453;42.708;23.282;2023-02-28T17:54:20;13.33;;;6.20;;
2888;SDS011;1453;42.708;23.282;2023-02-28T17:56:46;9.37;;;6.27;;
2888;SDS011;1453;42.708;23.282;2023-02-28T17:59:12;8.73;;;5.53;;
2888;SDS011;1453;42.708;23.282;2023-02-28T18:01:38;11.60;;;5.93;;
2888;SDS011;1453;42.708;23.282;2023-02-28T18:04:04;7.90;;;5.40;;
2888;SDS011;1453;42.708;23.282;2023-02-28T18:06:37;10.70;;;6.00;;
2888;SDS011;1453;42.708;23.282;2023-02-28T18:09:13;8.98;;;5.30;;
2888;SDS011;1453;42.708;23.282;2023-02-28T18:11:40;6.72;;;4.90;;
2888;SDS011;1453;42.708;23.282;2023-02-28T18:14:13;10.25;;;5.30;;
2888;SDS011;1453;42.708;23.282;2023-02-28T18:16:40;7.68;;;4.75;;
2888;SDS011;1453;42.708;23.282;2023-02-28T18:19:06;7.43;;;4.80;;
2888;SDS011;1453;42.708;23.282;2023-02-28T18:21:38;5.82;;;4.32;;
2888;SDS011;1453;42.708;23.282;2023-02-28T18:24:08;8.63;;;5.20;;
2888;SDS011;1453;42.708;23.282;2023-02-28T18:26:35;9.18;;;5.82;;
2888;SDS011;1453;42.708;23.282;2023-02-28T18:29:02;7.38;;;4.43;;
2888;SDS011;1453;42.708;23.282;2023-02-28T18:31:28;7.85;;;4.97;;
2888;SDS011;1453;42.708;23.282;2023-02-28T18:33:56;12.77;;;5.88;;
2888;SDS011;1453;42.708;23.282;2023-02-28T18:36:23;7.30;;;5.15;;
2888;SDS011;1453;42.708;23.282;2023-02-28T18:38:49;6.97;;;5.00;;
2888;SDS011;1453;42.708;23.282;2023-02-28T18:41:16;8.77;;;5.53;;
2888;SDS011;1453;42.708;23.282;2023-02-28T18:43:47;9.05;;;6.13;;